createdAt,value
2019-02-22T00:02:11.885Z,101817.02
2019-02-22T00:04:39.776Z,101817.68
2019-02-22T00:07:07.834Z,101825.26
2019-02-22T00:09:35.829Z,101826.73
2019-02-22T00:12:03.177Z,101827.06
2019-02-22T00:14:30.865Z,101827.36
2019-02-22T00:16:58.559Z,101825.47
2019-02-22T00:19:25.895Z,101836.43
2019-02-22T00:21:53.730Z,101824.20
2019-02-22T00:24:21.302Z,101836.20
2019-02-22T00:26:48.694Z,101832.02
2019-02-22T00:29:16.111Z,101838.25
2019-02-22T00:31:43.479Z,101834.36
2019-02-22T00:34:10.752Z,101831.62
2019-02-22T00:36:38.597Z,101841.20
2019-02-22T00:39:06.261Z,101836.91
2019-02-22T00:41:33.892Z,101832.25
2019-02-22T00:44:05.459Z,101833.74
2019-02-22T00:46:33.054Z,101831.23
2019-02-22T00:49:00.223Z,101830.18
2019-02-22T00:51:27.519Z,101835.66
2019-02-22T00:53:55.357Z,101835.79
2019-02-22T00:56:22.921Z,101839.45
2019-02-22T00:58:50.369Z,101837.57
2019-02-22T01:01:17.958Z,101841.77
2019-02-22T01:03:45.751Z,101837.36
2019-02-22T01:06:13.378Z,101839.58
2019-02-22T01:08:41.615Z,101844.74
2019-02-22T01:11:09.516Z,101852.34
2019-02-22T01:13:37.042Z,101849.38
2019-02-22T01:16:04.178Z,101845.05
2019-02-22T01:18:31.741Z,101850.45
2019-02-22T01:20:59.523Z,101843.70
2019-02-22T01:23:27.617Z,101847.81
2019-02-22T01:25:59.020Z,101851.51
2019-02-22T01:28:26.447Z,101855.40
2019-02-22T01:30:53.863Z,101858.58
2019-02-22T01:33:21.737Z,101853.81
2019-02-22T01:35:49.119Z,101857.20
2019-02-22T01:38:17.036Z,101859.08
2019-02-22T01:40:44.650Z,101858.45
2019-02-22T01:43:12.131Z,101854.34
2019-02-22T01:45:39.407Z,101856.14
2019-02-22T01:48:06.747Z,101863.92
2019-02-22T01:50:34.410Z,101859.95
2019-02-22T01:53:01.806Z,101861.32
2019-02-22T01:55:29.514Z,101861.40
2019-02-22T01:57:57.138Z,101867.70
2019-02-22T02:00:25.079Z,101874.34
2019-02-22T02:02:52.885Z,101872.14
2019-02-22T02:05:20.450Z,101874.15
2019-02-22T02:07:47.979Z,101876.75
2019-02-22T02:10:15.861Z,101878.86
2019-02-22T02:12:43.171Z,101874.88
2019-02-22T02:15:11.191Z,101874.98
2019-02-22T02:17:39.278Z,101875.09
2019-02-22T02:20:07.349Z,101883.62
2019-02-22T02:22:34.775Z,101885.95
2019-02-22T02:25:03.448Z,101885.20
2019-02-22T02:27:30.709Z,101887.95
2019-02-22T02:29:57.990Z,101889.02
2019-02-22T02:32:25.863Z,101900.69
2019-02-22T02:34:54.109Z,101897.87
2019-02-22T02:37:21.557Z,101900.51
2019-02-22T02:39:49.074Z,101899.77
2019-02-22T02:42:16.822Z,101895.43
2019-02-22T02:44:44.347Z,101896.05
2019-02-22T02:47:11.817Z,101897.77
2019-02-22T02:49:39.561Z,101896.72
2019-02-22T02:52:07.457Z,101895.97
2019-02-22T02:54:35.316Z,101894.92
2019-02-22T02:57:02.996Z,101891.86
2019-02-22T02:59:30.811Z,101897.34
2019-02-22T03:01:58.893Z,101895.58
2019-02-22T03:04:26.288Z,101898.92
2019-02-22T03:07:07.373Z,101897.97
2019-02-22T03:09:35.606Z,101904.19
2019-02-22T03:12:03.153Z,101904.41
2019-02-22T03:14:30.584Z,101908.61
2019-02-22T03:16:58.823Z,101906.19
2019-02-22T03:19:26.439Z,101909.77
2019-02-22T03:21:53.722Z,101916.53
2019-02-22T03:24:21.664Z,101919.88
2019-02-22T03:26:49.268Z,101917.98
2019-02-22T03:29:16.674Z,101921.05
2019-02-22T03:31:44.726Z,101916.94
2019-02-22T03:34:12.260Z,101912.41
2019-02-22T03:36:39.877Z,101920.22
2019-02-22T03:39:07.483Z,101921.46
2019-02-22T03:41:35.420Z,101921.80
2019-02-22T03:44:02.764Z,101926.95
2019-02-22T03:46:30.210Z,101923.59
2019-02-22T03:48:58.086Z,101925.19
2019-02-22T03:51:25.608Z,101927.70
2019-02-22T03:53:59.876Z,101924.95
2019-02-22T03:56:27.479Z,101925.48
2019-02-22T03:58:55.383Z,101927.17
2019-02-22T04:01:22.845Z,101936.54
2019-02-22T04:03:50.290Z,101937.38
2019-02-22T04:06:18.310Z,101936.75
2019-02-22T04:08:45.688Z,101937.59
2019-02-22T04:11:12.979Z,101941.92
2019-02-22T04:13:40.823Z,101952.13
2019-02-22T04:16:08.478Z,101949.69
2019-02-22T04:18:36.885Z,101953.27
2019-02-22T04:21:04.270Z,101942.11
2019-02-22T04:23:31.777Z,101948.31
2019-02-22T04:25:59.249Z,101953.69
2019-02-22T04:28:26.746Z,101957.66
2019-02-22T04:30:54.629Z,101959.17
2019-02-22T04:33:22.836Z,101953.48
2019-02-22T04:35:50.508Z,101960.09
2019-02-22T04:38:18.170Z,101949.80
2019-02-22T04:40:46.009Z,101951.58
2019-02-22T04:43:13.835Z,101942.63
2019-02-22T04:45:41.445Z,101944.95
2019-02-22T04:48:09.288Z,101945.71
2019-02-22T04:50:36.960Z,101947.16
2019-02-22T04:53:04.785Z,101943.27
2019-02-22T04:55:32.626Z,101942.00
2019-02-22T04:58:00.497Z,101949.06
2019-02-22T05:00:28.199Z,101952.33
2019-02-22T05:02:55.699Z,101955.83
2019-02-22T05:05:23.499Z,101959.48
2019-02-22T05:07:51.605Z,101968.13
2019-02-22T05:10:19.324Z,101972.33
2019-02-22T05:12:47.128Z,101972.23
2019-02-22T05:15:14.870Z,101973.47
2019-02-22T05:17:42.903Z,101978.41
2019-02-22T05:20:10.549Z,101987.16
2019-02-22T05:22:38.840Z,101991.45
2019-02-22T05:25:06.594Z,101989.27
2019-02-22T05:27:34.416Z,101992.39
2019-02-22T05:30:02.065Z,101997.34
2019-02-22T05:32:29.575Z,102003.16
2019-02-22T05:34:57.875Z,102003.80
2019-02-22T05:37:25.641Z,102017.70
2019-02-22T05:39:53.397Z,102021.80
2019-02-22T05:42:23.199Z,102026.97
2019-02-22T05:44:49.828Z,102018.85
2019-02-22T05:47:17.629Z,102030.97
2019-02-22T05:49:45.027Z,102030.65
2019-02-22T05:52:12.899Z,102030.13
2019-02-22T05:54:40.938Z,102034.97
2019-02-22T05:57:08.355Z,102040.69
2019-02-22T05:59:35.962Z,102029.03
2019-02-22T06:02:03.601Z,102039.11
2019-02-22T06:04:31.354Z,102038.94
2019-02-22T06:06:59.037Z,102047.57
2019-02-22T06:09:26.154Z,102046.13
2019-02-22T06:11:53.693Z,102045.60
2019-02-22T06:14:21.796Z,102046.13
2019-02-22T06:16:49.414Z,102054.84
2019-02-22T06:19:16.838Z,102047.08
2019-02-22T06:21:44.569Z,102059.08
2019-02-22T06:24:12.410Z,102070.95
2019-02-22T06:26:40.537Z,102075.05
2019-02-22T06:29:08.604Z,102070.95
2019-02-22T06:31:35.922Z,102075.27
2019-02-22T06:34:04.265Z,102077.96
2019-02-22T06:36:32.075Z,102072.62
2019-02-22T06:38:59.823Z,102067.69
2019-02-22T06:41:27.643Z,102078.25
2019-02-22T06:43:55.375Z,102078.73
2019-02-22T06:46:22.890Z,102086.26
2019-02-22T06:48:50.459Z,102086.22
2019-02-22T06:51:18.039Z,102093.20
2019-02-22T06:53:45.229Z,102094.97
2019-02-22T06:56:12.752Z,102097.50
2019-02-22T06:58:40.462Z,102090.08
2019-02-22T07:01:07.711Z,102093.39
2019-02-22T07:03:35.586Z,102088.30
2019-02-22T07:06:05.722Z,102093.25
2019-02-22T07:08:33.236Z,102102.03
2019-02-22T07:11:23.617Z,102106.14
2019-02-22T07:13:50.989Z,102114.77
2019-02-22T07:16:18.867Z,102115.02
2019-02-22T07:18:46.017Z,102116.08
2019-02-22T07:21:13.576Z,102116.84
2019-02-22T07:23:41.544Z,102117.48
2019-02-22T07:26:09.047Z,102140.59
2019-02-22T07:28:36.901Z,102152.29
2019-02-22T07:31:04.884Z,102153.38
2019-02-22T07:33:32.475Z,102149.30
2019-02-22T07:35:59.948Z,102148.91
2019-02-22T07:38:27.205Z,102148.06
2019-02-22T07:40:54.311Z,102147.57
2019-02-22T07:43:21.975Z,102153.27
2019-02-22T07:45:49.610Z,102161.97
2019-02-22T07:48:17.045Z,102164.59
2019-02-22T07:50:56.558Z,102174.54
2019-02-22T07:53:14.513Z,102170.98
2019-02-22T07:55:42.466Z,102172.37
2019-02-22T07:58:10.049Z,102184.11
2019-02-22T08:00:37.824Z,102181.69
2019-02-22T08:03:05.482Z,102184.03
2019-02-22T08:05:32.947Z,102190.27
2019-02-22T08:08:00.372Z,102185.45
2019-02-22T08:10:27.858Z,102176.80
2019-02-22T08:12:55.974Z,102174.30
2019-02-22T08:15:23.260Z,102184.45
2019-02-22T08:17:50.974Z,102188.80
2019-02-22T08:20:18.483Z,102195.02
2019-02-22T08:22:46.320Z,102204.94
2019-02-22T08:25:14.236Z,102206.23
2019-02-22T08:27:52.709Z,102210.88
2019-02-22T08:30:11.997Z,102211.41
2019-02-22T08:32:39.570Z,102218.81
2019-02-22T08:35:07.761Z,102220.19
2019-02-22T08:37:35.342Z,102227.37
2019-02-22T08:40:04.284Z,102230.30
2019-02-22T08:42:31.582Z,102234.64
2019-02-22T08:44:59.486Z,102235.70
2019-02-22T08:47:26.801Z,102237.70
2019-02-22T08:49:53.984Z,102240.03
2019-02-22T08:52:21.509Z,102240.05
2019-02-22T08:54:49.216Z,102244.16
2019-02-22T08:57:16.851Z,102240.11
2019-02-22T08:59:44.478Z,102253.86
2019-02-22T09:02:12.614Z,102244.44
2019-02-22T09:04:40.148Z,102238.14
2019-02-22T09:07:07.323Z,102238.74
2019-02-22T09:09:34.912Z,102241.92
2019-02-22T09:12:05.616Z,102248.86
2019-02-22T09:14:33.008Z,102253.16
2019-02-22T09:17:00.311Z,102247.28
2019-02-22T09:19:27.671Z,102251.48
2019-02-22T09:21:55.072Z,102260.09
2019-02-22T09:24:23.013Z,102262.77
2019-02-22T09:26:51.129Z,102265.84
2019-02-22T09:29:18.539Z,102263.05
2019-02-22T09:31:46.114Z,102260.53
2019-02-22T09:34:14.140Z,102265.62
2019-02-22T09:36:42.129Z,102270.28
2019-02-22T09:39:09.405Z,102266.63
2019-02-22T09:41:37.483Z,102267.45
2019-02-22T09:44:05.362Z,102269.27
2019-02-22T09:46:32.781Z,102261.41
2019-02-22T09:49:00.819Z,102271.33
2019-02-22T09:51:28.020Z,102278.87
2019-02-22T09:53:56.304Z,102278.34
2019-02-22T09:56:24.447Z,102278.73
2019-02-22T09:58:52.016Z,102282.26
2019-02-22T10:01:19.248Z,102286.83
2019-02-22T10:03:47.379Z,102289.02
2019-02-22T10:06:15.454Z,102285.99
2019-02-22T10:08:43.022Z,102280.75
2019-02-22T10:11:10.443Z,102277.56
2019-02-22T10:13:38.367Z,102283.97
2019-02-22T10:16:06.145Z,102272.70
2019-02-22T10:18:33.777Z,102280.78
2019-02-22T10:21:01.036Z,102276.63
2019-02-22T10:23:28.490Z,102287.36
2019-02-22T10:25:55.720Z,102283.45
2019-02-22T10:28:23.299Z,102293.36
2019-02-22T10:30:50.893Z,102295.44
2019-02-22T10:33:18.173Z,102292.61
2019-02-22T10:35:46.511Z,102297.66
2019-02-22T10:38:14.319Z,102299.17
2019-02-22T10:40:41.747Z,102304.72
2019-02-22T10:43:09.398Z,102305.20
2019-02-22T10:45:37.100Z,102306.14
2019-02-22T10:48:04.775Z,102314.61
2019-02-22T10:50:32.351Z,102318.37
2019-02-22T10:53:02.365Z,102324.44
2019-02-22T10:55:29.432Z,102327.91
2019-02-22T10:57:56.742Z,102328.00
2019-02-22T11:00:25.173Z,102330.44
2019-02-22T11:02:52.806Z,102334.05
2019-02-22T11:05:20.043Z,102339.80
2019-02-22T11:07:47.976Z,102337.72
2019-02-22T11:10:15.731Z,102334.05
2019-02-22T11:12:43.874Z,102335.52
2019-02-22T11:15:11.662Z,102342.23
2019-02-22T11:17:39.567Z,102342.13
2019-02-22T11:20:08.426Z,102342.90
2019-02-22T11:22:35.938Z,102344.92
2019-02-22T11:25:05.325Z,102345.19
2019-02-22T11:27:32.921Z,102347.34
2019-02-22T11:30:00.540Z,102348.05
2019-02-22T11:32:28.287Z,102347.50
2019-02-22T11:34:55.915Z,102348.07
2019-02-22T11:37:23.459Z,102345.08
2019-02-22T11:39:50.880Z,102360.01
2019-02-22T11:42:18.326Z,102357.23
2019-02-22T11:44:46.451Z,102362.78
2019-02-22T11:47:14.298Z,102368.77
2019-02-22T11:49:41.518Z,102365.58
2019-02-22T11:52:09.039Z,102369.08
2019-02-22T11:54:36.966Z,102368.22
2019-02-22T11:57:05.238Z,102369.02
2019-02-22T11:59:32.973Z,102368.90
2019-02-22T12:02:01.005Z,102362.86
2019-02-22T12:04:28.283Z,102372.44
2019-02-22T12:06:55.812Z,102375.53
2019-02-22T12:09:23.884Z,102374.92
2019-02-22T12:11:51.569Z,102377.22
2019-02-22T12:14:19.917Z,102377.36
2019-02-22T12:16:50.150Z,102383.91
2019-02-22T12:19:17.711Z,102389.50
2019-02-22T12:21:45.031Z,102393.02
2019-02-22T12:24:12.265Z,102390.53
2019-02-22T12:26:39.941Z,102388.34
2019-02-22T12:29:07.715Z,102391.83
2019-02-22T12:31:35.736Z,102387.92
2019-02-22T12:34:03.573Z,102395.09
2019-02-22T12:36:31.318Z,102393.20
2019-02-22T12:38:59.114Z,102393.48
2019-02-22T12:41:26.798Z,102397.68
2019-02-22T12:43:54.375Z,102402.25
2019-02-22T12:46:22.011Z,102407.88
2019-02-22T12:48:49.646Z,102415.88
2019-02-22T12:51:17.449Z,102414.84
2019-02-22T12:53:45.036Z,102418.02
2019-02-22T12:56:12.782Z,102412.55
2019-02-22T12:58:40.709Z,102411.17
2019-02-22T13:01:08.133Z,102411.23
2019-02-22T13:03:35.447Z,102410.13
2019-02-22T13:06:03.280Z,102423.81
2019-02-22T13:08:31.470Z,102420.29
2019-02-22T13:10:59.687Z,102424.50
2019-02-22T13:13:27.554Z,102422.78
2019-02-22T13:15:55.543Z,102425.00
2019-02-22T13:18:23.373Z,102432.27
2019-02-22T13:20:53.178Z,102423.73
2019-02-22T13:23:20.174Z,102428.41
2019-02-22T13:25:47.537Z,102432.42
2019-02-22T13:28:15.112Z,102436.91
2019-02-22T13:30:42.687Z,102436.37
2019-02-22T13:33:09.785Z,102439.70
2019-02-22T13:35:37.523Z,102438.69
2019-02-22T13:38:05.575Z,102433.69
2019-02-22T13:40:33.628Z,102436.59
2019-02-22T13:43:01.465Z,102434.25
2019-02-22T13:45:28.708Z,102436.62
2019-02-22T13:47:56.516Z,102435.21
2019-02-22T13:50:24.304Z,102432.50
2019-02-22T13:52:51.892Z,102431.01
2019-02-22T13:55:19.779Z,102433.42
2019-02-22T13:57:47.469Z,102435.64
2019-02-22T14:00:16.539Z,102431.77
2019-02-22T14:02:43.935Z,102431.08
2019-02-22T14:05:12.052Z,102431.01
2019-02-22T14:07:49.782Z,102441.01
2019-02-22T14:10:18.091Z,102430.73
2019-02-22T14:12:45.721Z,102437.16
2019-02-22T14:15:13.944Z,102447.58
2019-02-22T14:17:42.065Z,102451.80
2019-02-22T14:20:10.347Z,102448.42
2019-02-22T14:22:38.031Z,102452.26
2019-02-22T14:25:05.858Z,102460.80
2019-02-22T14:27:33.145Z,102461.38
2019-02-22T14:30:00.426Z,102460.87
2019-02-22T14:32:28.413Z,102465.13
2019-02-22T14:34:56.232Z,102469.98
2019-02-22T14:37:23.815Z,102473.28
2019-02-22T14:40:02.345Z,102469.23
2019-02-22T14:42:21.410Z,102468.56
2019-02-22T14:44:49.353Z,102467.37
2019-02-22T14:47:17.472Z,102467.41
2019-02-22T14:49:44.982Z,102472.02
2019-02-22T14:52:12.843Z,102470.35
2019-02-22T14:54:40.498Z,102461.95
2019-02-22T14:57:08.178Z,102472.55
2019-02-22T14:59:35.683Z,102480.63
2019-02-22T15:02:03.568Z,102464.37
2019-02-22T15:04:31.681Z,102470.59
2019-02-22T15:06:59.829Z,102467.52
2019-02-22T15:09:27.324Z,102465.39
2019-02-22T15:11:54.876Z,102468.91
2019-02-22T15:14:23.512Z,102466.67
2019-02-22T15:17:03.184Z,102468.69
2019-02-22T15:19:31.425Z,102477.21
2019-02-22T15:22:01.028Z,102475.59
2019-02-22T15:24:27.788Z,102480.57
2019-02-22T15:26:58.254Z,102489.67
2019-02-22T15:29:26.041Z,102490.98
2019-02-22T15:31:55.118Z,102497.53
2019-02-22T15:34:22.664Z,102499.97
2019-02-22T15:36:50.643Z,102500.83
2019-02-22T15:39:18.087Z,102502.53
2019-02-22T15:41:45.654Z,102495.11
2019-02-22T15:44:13.212Z,102500.84
2019-02-22T15:46:40.639Z,102505.20
2019-02-22T15:49:08.012Z,102503.70
2019-02-22T15:51:35.666Z,102502.55
2019-02-22T15:54:03.157Z,102499.38
2019-02-22T15:56:31.123Z,102495.66
2019-02-22T15:58:58.841Z,102491.13
2019-02-22T16:01:26.747Z,102491.23
2019-02-22T16:03:59.709Z,102493.12
2019-02-22T16:06:27.310Z,102489.31
2019-02-22T16:08:54.682Z,102488.69
2019-02-22T16:11:22.010Z,102488.67
2019-02-22T16:13:50.449Z,102487.59
2019-02-22T16:16:23.120Z,102491.17
2019-02-22T16:18:47.786Z,102484.82
2019-02-22T16:21:15.493Z,102484.04
2019-02-22T16:23:43.175Z,102483.66
2019-02-22T16:26:11.314Z,102486.20
2019-02-22T16:28:38.958Z,102477.50
2019-02-22T16:31:06.889Z,102472.48
2019-02-22T16:33:34.616Z,102476.55
2019-02-22T16:36:02.419Z,102474.52
2019-02-22T16:38:29.686Z,102476.38
2019-02-22T16:40:56.929Z,102475.45
2019-02-22T16:43:24.094Z,102468.27
2019-02-22T16:45:54.639Z,102471.38
2019-02-22T16:48:22.352Z,102472.62
2019-02-22T16:50:50.031Z,102474.83
2019-02-22T16:53:17.818Z,102475.56
2019-02-22T16:55:45.304Z,102483.73
2019-02-22T16:58:12.927Z,102473.98
2019-02-22T17:00:40.326Z,102479.09
2019-02-22T17:03:08.275Z,102480.85
2019-02-22T17:05:36.059Z,102480.46
2019-02-22T17:08:03.473Z,102487.74
2019-02-22T17:10:31.235Z,102487.34
2019-02-22T17:12:58.682Z,102498.63
2019-02-22T17:15:25.804Z,102506.23
2019-02-22T17:17:53.823Z,102505.71
2019-02-22T17:20:20.927Z,102504.09
2019-02-22T17:22:48.872Z,102503.41
2019-02-22T17:25:16.283Z,102504.52
2019-02-22T17:27:44.159Z,102507.81
2019-02-22T17:30:15.761Z,102506.75
2019-02-22T17:32:43.142Z,102507.34
2019-02-22T17:35:11.109Z,102503.75
2019-02-22T17:37:38.512Z,102506.80
2019-02-22T17:40:10.342Z,102515.17
2019-02-22T17:42:38.379Z,102508.25
2019-02-22T17:45:06.169Z,102515.77
2019-02-22T17:47:33.681Z,102520.02
2019-02-22T17:50:00.858Z,102521.77
2019-02-22T17:52:28.379Z,102520.78
2019-02-22T17:54:55.822Z,102523.77
2019-02-22T17:57:23.611Z,102520.85
2019-02-22T17:59:58.009Z,102521.94
2019-02-22T18:02:29.406Z,102520.36
2019-02-22T18:04:56.989Z,102520.91
2019-02-22T18:07:24.547Z,102519.92
2019-02-22T18:09:52.752Z,102519.77
2019-02-22T18:12:22.758Z,102519.81
2019-02-22T18:14:50.050Z,102522.90
2019-02-22T18:17:17.424Z,102527.33
2019-02-22T18:19:44.916Z,102531.62
2019-02-22T18:22:12.343Z,102535.71
2019-02-22T18:24:39.763Z,102541.16
2019-02-22T18:27:08.401Z,102550.34
2019-02-22T18:29:36.797Z,102557.01
2019-02-22T18:32:04.316Z,102568.09
2019-02-22T18:34:31.738Z,102567.06
2019-02-22T18:36:59.281Z,102569.63
2019-02-22T18:39:26.961Z,102568.77
2019-02-22T18:41:54.685Z,102569.27
2019-02-22T18:44:22.737Z,102572.16
2019-02-22T18:46:50.256Z,102564.33
2019-02-22T18:49:17.994Z,102562.95
2019-02-22T18:51:45.777Z,102568.06
2019-02-22T18:54:13.733Z,102568.23
2019-02-22T18:56:41.570Z,102569.58
2019-02-22T18:59:09.007Z,102577.70
2019-02-22T19:01:36.682Z,102585.82
2019-02-22T19:04:04.365Z,102584.66
2019-02-22T19:06:31.930Z,102584.47
2019-02-22T19:08:59.534Z,102585.00
2019-02-22T19:11:26.823Z,102585.00
2019-02-22T19:13:53.987Z,102582.92
2019-02-22T19:16:21.238Z,102586.96
2019-02-22T19:18:48.965Z,102593.70
2019-02-22T19:21:16.684Z,102592.23
2019-02-22T19:23:44.445Z,102592.99
2019-02-22T19:26:12.431Z,102593.67
2019-02-22T19:28:40.516Z,102601.62
2019-02-22T19:31:08.698Z,102607.41
2019-02-22T19:33:35.975Z,102617.87
2019-02-22T19:36:03.656Z,102619.27
2019-02-22T19:38:31.084Z,102625.66
2019-02-22T19:40:58.887Z,102627.17
2019-02-22T19:43:26.454Z,102631.33
2019-02-22T19:45:54.291Z,102630.27
2019-02-22T19:48:21.733Z,102633.02
2019-02-22T19:50:49.838Z,102636.89
2019-02-22T19:53:21.517Z,102637.18
2019-02-22T19:56:15.975Z,102638.81
2019-02-22T19:58:44.533Z,102644.13
2019-02-22T20:01:16.023Z,102644.13
2019-02-22T20:03:44.139Z,102645.78
2019-02-22T20:06:15.297Z,102652.22
2019-02-22T20:08:44.304Z,102653.02
2019-02-22T20:11:26.571Z,102647.81
2019-02-22T20:13:55.050Z,102654.70
2019-02-22T20:16:23.106Z,102666.25
2019-02-22T20:18:53.676Z,102661.16
2019-02-22T20:21:22.152Z,102669.13
2019-02-22T20:23:50.856Z,102667.66
2019-02-22T20:26:19.625Z,102663.22
2019-02-22T20:28:49.028Z,102668.67
2019-02-22T20:31:35.495Z,102664.36
2019-02-22T20:34:30.500Z,102665.42
2019-02-22T20:37:20.169Z,102658.03
2019-02-22T20:39:52.115Z,102674.50
2019-02-22T20:46:09.659Z,102681.37
2019-02-22T20:48:38.944Z,102680.53
2019-02-22T20:51:07.291Z,102683.09
2019-02-22T20:53:42.580Z,102692.13
2019-02-22T20:56:14.672Z,102695.05
2019-02-22T20:58:43.149Z,102693.95
2019-02-22T21:01:24.825Z,102705.25
2019-02-22T21:03:48.973Z,102705.47
2019-02-22T21:06:18.774Z,102712.19
2019-02-22T21:08:47.100Z,102709.30
2019-02-22T21:11:15.197Z,102713.12
2019-02-22T21:13:43.749Z,102709.03
2019-02-22T21:16:12.053Z,102713.23
2019-02-22T21:18:40.654Z,102715.06
2019-02-22T21:21:08.734Z,102722.86
2019-02-22T21:23:37.320Z,102729.16
2019-02-22T21:26:05.886Z,102739.50
2019-02-22T21:28:34.546Z,102735.09
2019-02-22T21:31:03.264Z,102731.34
2019-02-22T21:33:39.576Z,102724.68
2019-02-22T21:36:57.391Z,102724.00
2019-02-22T21:39:19.763Z,102720.09
2019-02-22T21:42:21.348Z,102716.07
2019-02-22T21:45:06.598Z,102708.20
2019-02-22T21:48:07.145Z,102707.61
2019-02-22T21:50:54.831Z,102712.44
2019-02-22T21:53:25.206Z,102721.59
2019-02-22T21:56:04.272Z,102712.78
2019-02-22T21:59:09.096Z,102718.56
2019-02-22T22:01:47.845Z,102716.00
2019-02-22T22:04:13.196Z,102717.45
2019-02-22T22:06:42.352Z,102711.62
2019-02-22T22:09:21.633Z,102719.38
2019-02-22T22:11:53.574Z,102721.60
2019-02-22T22:14:26.109Z,102712.37
2019-02-22T22:17:08.333Z,102712.92
2019-02-22T22:19:34.913Z,102715.41
2019-02-22T22:22:03.225Z,102716.64
2019-02-22T22:24:51.519Z,102709.22
2019-02-22T22:27:20.097Z,102711.50
2019-02-22T22:29:48.204Z,102715.38
2019-02-22T22:32:18.392Z,102714.60
2019-02-22T22:34:46.979Z,102717.82
2019-02-22T22:37:15.811Z,102719.56
2019-02-22T22:39:44.146Z,102721.11
2019-02-22T22:42:12.455Z,102727.74
2019-02-22T22:44:40.405Z,102734.13
2019-02-22T22:47:08.445Z,102734.98
2019-02-22T22:49:36.647Z,102740.33
2019-02-22T22:52:05.230Z,102744.78
2019-02-22T22:54:33.656Z,102747.22
2019-02-22T22:57:01.814Z,102747.48
2019-02-22T22:59:30.263Z,102750.16
2019-02-22T23:01:58.644Z,102745.43
2019-02-22T23:04:27.330Z,102758.13
2019-02-22T23:06:55.789Z,102758.70
2019-02-22T23:09:24.603Z,102764.11
2019-02-22T23:11:53.322Z,102763.19
2019-02-22T23:14:24.042Z,102762.00
2019-02-22T23:16:52.125Z,102764.12
2019-02-22T23:19:20.263Z,102768.76
2019-02-22T23:21:48.371Z,102766.83
2019-02-22T23:24:17.465Z,102768.54
2019-02-22T23:26:46.224Z,102777.23
2019-02-22T23:29:14.631Z,102775.27
2019-02-22T23:31:42.784Z,102776.23
2019-02-22T23:34:10.825Z,102784.66
2019-02-22T23:36:39.039Z,102788.13
2019-02-22T23:39:08.658Z,102790.19
2019-02-22T23:41:37.218Z,102791.39
2019-02-22T23:44:05.468Z,102798.46
2019-02-22T23:46:33.867Z,102802.23
2019-02-22T23:49:12.613Z,102797.98
2019-02-22T23:51:32.358Z,102792.00
2019-02-22T23:54:00.640Z,102800.13
2019-02-22T23:56:29.932Z,102807.14
2019-02-22T23:58:58.345Z,102810.50
